Time;durP1;ratioP1;P1;durP2;ratioP2;P2;SDS_P1;SDS_P2;PMS_P1;PMS_P2;Temp;Humidity;BMP_temperature;BMP_pressure;BME280_temperature;BME280_humidity;BME280_pressure;Samples;Min_cycle;Max_cycle;Signal;HPM_P1;HPM_P2
2022/02/26 00:00:35;;;;;;;32.28;4.72;;;;;;;;;;5079275;28;20140;-66
2022/02/26 00:03:02;;;;;;;27.02;4.95;;;;;;;;;;5084543;28;20557;-66
2022/02/26 00:05:28;;;;;;;41.85;5.07;;;;;;;;;;5080087;28;20175;-66
2022/02/26 00:07:54;;;;;;;30.70;5.30;;;;;;;;;;5077684;28;20100;-66
2022/02/26 00:10:20;;;;;;;29.65;4.18;;;;;;;;;;5081286;28;20103;-66
2022/02/26 00:12:46;;;;;;;33.25;5.15;;;;;;;;;;5085678;28;20150;-66
2022/02/26 00:15:12;;;;;;;26.90;4.13;;;;;;;;;;5079399;28;20063;-66
2022/02/26 00:17:38;;;;;;;44.35;6.43;;;;;;;;;;5080676;28;20044;-66
2022/02/26 00:20:05;;;;;;;25.20;3.20;;;;;;;;;;5080021;28;20123;-67
2022/02/26 00:22:31;;;;;;;26.30;3.88;;;;;;;;;;5088214;28;20067;-66
2022/02/26 00:24:57;;;;;;;25.52;4.60;;;;;;;;;;5090183;28;20076;-66
2022/02/26 00:27:23;;;;;;;19.05;3.97;;;;;;;;;;5081214;28;20107;-66
2022/02/26 00:29:49;;;;;;;30.40;4.13;;;;;;;;;;5064283;28;20045;-66
2022/02/26 00:32:16;;;;;;;37.88;4.43;;;;;;;;;;5072963;28;20052;-66
2022/02/26 00:34:42;;;;;;;30.70;4.40;;;;;;;;;;5074239;28;20058;-66
2022/02/26 00:37:08;;;;;;;29.40;4.28;;;;;;;;;;5084762;28;20127;-66
2022/02/26 00:39:34;;;;;;;27.80;4.28;;;;;;;;;;5085166;28;20100;-66
2022/02/26 00:42:00;;;;;;;23.30;3.88;;;;;;;;;;5087372;28;20053;-66
2022/02/26 00:44:26;;;;;;;30.60;4.88;;;;;;;;;;5083318;28;20055;-66
2022/02/26 00:46:52;;;;;;;29.40;4.53;;;;;;;;;;5085380;28;20472;-66
2022/02/26 00:52:03;;;;;;;32.28;5.20;;;;;;;;;;5084848;28;20071;-67
2022/02/26 00:54:29;;;;;;;31.20;5.50;;;;;;;;;;5083538;28;20531;-66
2022/02/26 00:56:56;;;;;;;26.98;4.45;;;;;;;;;;5081446;28;20052;-66
2022/02/26 00:59:22;;;;;;;33.85;4.80;;;;;;;;;;5083476;28;20081;-66
2022/02/26 01:01:48;;;;;;;31.52;5.15;;;;;;;;;;5085005;28;20084;-66
2022/02/26 01:04:14;;;;;;;24.83;3.83;;;;;;;;;;5085181;28;20044;-66
2022/02/26 01:06:40;;;;;;;25.70;4.25;;;;;;;;;;5067772;28;20100;-66
2022/02/26 01:09:06;;;;;;;27.55;4.85;;;;;;;;;;5080423;28;20044;-66
2022/02/26 01:11:32;;;;;;;29.25;4.45;;;;;;;;;;5064811;28;20123;-66
2022/02/26 01:13:59;;;;;;;23.80;4.90;;;;;;;;;;5064668;28;20055;-66
2022/02/26 01:16:25;;;;;;;36.88;4.28;;;;;;;;;;5067110;28;20276;-66
2022/02/26 01:18:52;;;;;;;32.03;4.40;;;;;;;;;;5080356;28;20049;-66
2022/02/26 01:21:19;;;;;;;26.52;3.58;;;;;;;;;;5070534;28;20044;-66
2022/02/26 01:23:45;;;;;;;24.13;4.45;;;;;;;;;;5084766;28;20044;-66
2022/02/26 01:26:11;;;;;;;24.23;5.18;;;;;;;;;;5083882;28;20040;-66
2022/02/26 01:28:37;;;;;;;19.52;3.85;;;;;;;;;;5079807;28;20139;-66
2022/02/26 01:31:04;;;;;;;20.40;4.03;;;;;;;;;;5080050;28;20127;-66
2022/02/26 01:33:30;;;;;;;28.98;4.75;;;;;;;;;;5080460;28;20074;-66
2022/02/26 01:35:56;;;;;;;17.50;4.90;;;;;;;;;;5077313;28;20080;-66
2022/02/26 01:38:22;;;;;;;32.65;4.30;;;;;;;;;;5084596;28;20037;-66
2022/02/26 01:40:48;;;;;;;19.27;3.22;;;;;;;;;;5084129;28;20108;-66
2022/02/26 01:43:14;;;;;;;30.52;4.70;;;;;;;;;;5084349;28;20052;-66
2022/02/26 01:45:40;;;;;;;30.63;4.15;;;;;;;;;;5072726;28;20045;-66
2022/02/26 01:48:07;;;;;;;26.30;4.30;;;;;;;;;;5064585;28;20144;-66
2022/02/26 01:50:33;;;;;;;23.60;4.65;;;;;;;;;;5079939;28;20556;-66
2022/02/26 01:52:59;;;;;;;28.13;3.92;;;;;;;;;;5063487;28;20287;-66
2022/02/26 01:55:28;;;;;;;33.10;4.95;;;;;;;;;;5073069;28;20048;-66
2022/02/26 01:57:55;;;;;;;25.50;4.47;;;;;;;;;;5084317;28;20120;-66
2022/02/26 02:00:21;;;;;;;20.00;3.90;;;;;;;;;;5084063;28;20123;-66
2022/02/26 02:02:48;;;;;;;24.40;3.47;;;;;;;;;;5084437;28;20086;-66
2022/02/26 02:05:14;;;;;;;30.10;4.97;;;;;;;;;;5082501;28;20067;-66
2022/02/26 02:07:40;;;;;;;17.83;4.05;;;;;;;;;;5071410;28;20045;-66
2022/02/26 02:10:07;;;;;;;25.95;4.78;;;;;;;;;;5064036;28;20523;-66
2022/02/26 02:12:33;;;;;;;32.83;4.75;;;;;;;;;;5095751;28;20040;-66
2022/02/26 02:14:59;;;;;;;24.52;4.10;;;;;;;;;;5083778;28;20102;-66
2022/02/26 02:17:25;;;;;;;30.48;3.90;;;;;;;;;;5064307;28;20053;-66
2022/02/26 02:19:52;;;;;;;24.20;4.57;;;;;;;;;;5064064;28;20062;-66
2022/02/26 02:22:18;;;;;;;26.83;4.03;;;;;;;;;;5063311;28;20041;-67
2022/02/26 02:24:45;;;;;;;28.15;4.15;;;;;;;;;;5063832;28;20036;-66
2022/02/26 02:27:11;;;;;;;30.75;3.90;;;;;;;;;;5080149;28;20051;-66
2022/02/26 02:29:38;;;;;;;25.73;4.32;;;;;;;;;;5082615;28;20048;-66
2022/02/26 02:32:05;;;;;;;21.75;3.72;;;;;;;;;;5082212;28;20053;-67
2022/02/26 02:34:31;;;;;;;29.98;5.22;;;;;;;;;;5083852;28;20047;-66
2022/02/26 02:36:57;;;;;;;20.73;4.15;;;;;;;;;;5082062;28;20070;-67
2022/02/26 02:39:23;;;;;;;29.67;4.65;;;;;;;;;;5082496;28;20052;-67
2022/02/26 02:41:49;;;;;;;23.58;3.67;;;;;;;;;;5067439;28;20097;-66
2022/02/26 02:44:15;;;;;;;36.30;4.72;;;;;;;;;;5063892;28;20109;-66
2022/02/26 02:46:42;;;;;;;27.55;5.20;;;;;;;;;;5063655;28;20294;-66
2022/02/26 02:49:09;;;;;;;23.67;4.72;;;;;;;;;;5063547;28;20052;-66
2022/02/26 02:51:35;;;;;;;25.38;4.63;;;;;;;;;;5073801;28;20100;-66
2022/02/26 02:54:01;;;;;;;22.23;4.18;;;;;;;;;;5086628;28;20530;-67
2022/02/26 02:56:27;;;;;;;32.88;4.97;;;;;;;;;;5087610;28;20041;-67
2022/02/26 02:58:53;;;;;;;18.92;3.35;;;;;;;;;;5086410;28;20067;-66
2022/02/26 03:01:20;;;;;;;30.08;4.28;;;;;;;;;;5076551;28;20049;-66
2022/02/26 03:03:47;;;;;;;21.63;4.00;;;;;;;;;;5067374;28;20053;-66
2022/02/26 03:06:13;;;;;;;26.15;5.63;;;;;;;;;;5066932;28;20109;-66
2022/02/26 03:08:39;;;;;;;32.35;4.78;;;;;;;;;;5067408;28;20048;-66
2022/02/26 03:11:05;;;;;;;34.45;5.97;;;;;;;;;;5075395;28;20127;-66
2022/02/26 03:13:33;;;;;;;25.80;4.38;;;;;;;;;;5085990;28;20802;-66
2022/02/26 03:15:59;;;;;;;32.58;4.88;;;;;;;;;;5087228;28;20087;-66
2022/02/26 03:18:25;;;;;;;31.67;5.38;;;;;;;;;;5085912;28;20539;-66
2022/02/26 03:20:52;;;;;;;30.90;4.57;;;;;;;;;;5080023;28;20123;-66
2022/02/26 03:23:19;;;;;;;34.95;5.82;;;;;;;;;;5082412;28;20548;-66
2022/02/26 03:25:45;;;;;;;30.38;3.90;;;;;;;;;;5082872;28;20107;-66
2022/02/26 03:28:12;;;;;;;24.42;4.15;;;;;;;;;;5067057;28;20079;-66
2022/02/26 03:30:39;;;;;;;38.42;4.90;;;;;;;;;;5086048;28;20112;-66
2022/02/26 03:33:06;;;;;;;39.40;6.40;;;;;;;;;;5086881;28;20053;-66
2022/02/26 03:35:33;;;;;;;21.27;4.50;;;;;;;;;;5086811;28;20063;-66
2022/02/26 03:37:59;;;;;;;30.08;5.20;;;;;;;;;;5086445;28;20103;-66
2022/02/26 03:40:26;;;;;;;26.58;4.68;;;;;;;;;;5083828;28;20063;-66
2022/02/26 03:42:52;;;;;;;24.58;3.75;;;;;;;;;;5066549;28;20037;-66
2022/02/26 03:45:18;;;;;;;28.52;5.43;;;;;;;;;;5066477;28;20123;-66
2022/02/26 03:47:44;;;;;;;20.85;4.13;;;;;;;;;;5066474;28;20041;-66
2022/02/26 03:50:11;;;;;;;44.75;4.20;;;;;;;;;;5067605;28;20080;-66
2022/02/26 03:52:37;;;;;;;35.47;4.93;;;;;;;;;;5085446;28;20095;-66
2022/02/26 03:55:04;;;;;;;33.33;5.78;;;;;;;;;;5078256;28;20044;-66
2022/02/26 03:57:33;;;;;;;26.85;4.18;;;;;;;;;;5081822;28;20048;-66
2022/02/26 04:00:00;;;;;;;39.95;6.25;;;;;;;;;;5066037;28;20456;-65
2022/02/26 04:02:26;;;;;;;21.20;5.00;;;;;;;;;;5084029;28;20178;-66
2022/02/26 04:04:52;;;;;;;29.52;3.78;;;;;;;;;;5083826;28;20044;-66
2022/02/26 04:07:18;;;;;;;20.98;4.78;;;;;;;;;;5085597;28;20045;-66
2022/02/26 04:09:44;;;;;;;25.17;4.88;;;;;;;;;;5086750;28;20159;-66
2022/02/26 04:12:10;;;;;;;28.58;5.22;;;;;;;;;;5099937;28;20124;-66
2022/02/26 04:14:37;;;;;;;24.85;3.78;;;;;;;;;;5084342;28;20048;-66
2022/02/26 04:17:03;;;;;;;19.52;3.75;;;;;;;;;;5085916;28;20040;-65
2022/02/26 04:19:29;;;;;;;31.13;4.70;;;;;;;;;;5086172;28;20051;-65
2022/02/26 04:21:55;;;;;;;26.52;3.85;;;;;;;;;;5077684;28;20193;-66
2022/02/26 04:24:21;;;;;;;29.05;5.10;;;;;;;;;;5079721;28;20044;-66
2022/02/26 04:26:47;;;;;;;26.83;4.53;;;;;;;;;;5084511;28;20071;-66
2022/02/26 04:29:14;;;;;;;22.92;5.05;;;;;;;;;;5085709;28;20044;-66
2022/02/26 04:31:40;;;;;;;24.00;4.88;;;;;;;;;;5085602;28;20041;-66
2022/02/26 04:34:06;;;;;;;30.75;4.15;;;;;;;;;;5074800;28;20045;-66
2022/02/26 04:36:33;;;;;;;31.08;4.90;;;;;;;;;;5072813;28;20044;-66
2022/02/26 04:38:59;;;;;;;22.58;4.13;;;;;;;;;;5085592;28;20119;-66
2022/02/26 04:41:25;;;;;;;21.15;3.40;;;;;;;;;;5085742;28;20045;-66
2022/02/26 04:43:51;;;;;;;25.83;4.80;;;;;;;;;;5083643;28;20037;-66
2022/02/26 04:46:17;;;;;;;38.47;4.65;;;;;;;;;;5084203;28;20071;-65
2022/02/26 04:48:44;;;;;;;38.35;4.97;;;;;;;;;;5085644;28;20047;-66
2022/02/26 04:51:10;;;;;;;27.27;5.28;;;;;;;;;;5084505;28;20099;-66
2022/02/26 04:53:37;;;;;;;22.00;4.15;;;;;;;;;;5084861;28;20064;-66
2022/02/26 04:56:03;;;;;;;35.90;5.00;;;;;;;;;;5085167;28;20049;-66
2022/02/26 04:58:30;;;;;;;27.77;4.60;;;;;;;;;;5085137;28;20037;-65
2022/02/26 05:00:58;;;;;;;25.85;4.13;;;;;;;;;;5083721;28;20049;-66
2022/02/26 05:03:24;;;;;;;;;;;;;;;;;;5085286;28;20092;-66
2022/02/26 05:05:50;;;;;;;28.00;4.30;;;;;;;;;;5084372;28;19939;-66
2022/02/26 05:08:16;;;;;;;26.55;4.28;;;;;;;;;;5084683;28;20103;-66
2022/02/26 05:10:43;;;;;;;23.73;4.45;;;;;;;;;;5083495;28;20044;-66
2022/02/26 05:13:09;;;;;;;30.10;3.25;;;;;;;;;;5082829;28;20178;-66
2022/02/26 05:15:35;;;;;;;26.92;3.88;;;;;;;;;;5099404;28;20052;-66
2022/02/26 05:18:01;;;;;;;25.90;4.10;;;;;;;;;;5084984;28;20040;-66
2022/02/26 05:20:27;;;;;;;38.00;5.10;;;;;;;;;;5084716;28;20044;-66
2022/02/26 05:22:53;;;;;;;24.38;4.57;;;;;;;;;;5083264;28;20033;-66
2022/02/26 05:25:20;;;;;;;28.02;3.97;;;;;;;;;;5083603;28;20511;-66
2022/02/26 05:27:46;;;;;;;11.65;3.60;;;;;;;;;;5084693;28;20119;-66
2022/02/26 05:30:13;;;;;;;20.83;4.15;;;;;;;;;;5084272;28;20103;-65
2022/02/26 05:32:40;;;;;;;19.45;3.78;;;;;;;;;;5072909;28;20033;-65
2022/02/26 05:35:07;;;;;;;24.25;5.03;;;;;;;;;;5064610;28;20049;-66
2022/02/26 05:37:33;;;;;;;24.15;4.75;;;;;;;;;;5064150;28;20052;-66
2022/02/26 05:39:59;;;;;;;25.65;4.80;;;;;;;;;;5064587;28;20484;-66
2022/02/26 05:42:25;;;;;;;28.55;5.57;;;;;;;;;;5073781;28;20499;-65
2022/02/26 05:44:51;;;;;;;31.63;4.95;;;;;;;;;;5069926;28;20041;-66
2022/02/26 05:47:17;;;;;;;23.95;4.55;;;;;;;;;;5064687;28;20044;-66
2022/02/26 05:49:43;;;;;;;27.30;4.53;;;;;;;;;;5080024;28;20045;-65
2022/02/26 05:52:09;;;;;;;36.28;5.75;;;;;;;;;;5063829;28;20413;-65
2022/02/26 05:54:36;;;;;;;24.60;5.38;;;;;;;;;;5064202;28;20056;-65
2022/02/26 05:57:02;;;;;;;22.48;4.28;;;;;;;;;;5064085;28;20107;-65
2022/02/26 05:59:28;;;;;;;24.17;4.68;;;;;;;;;;5064204;28;20127;-65
2022/02/26 06:01:54;;;;;;;31.15;3.80;;;;;;;;;;5064144;28;20053;-65
2022/02/26 06:04:21;;;;;;;19.90;3.78;;;;;;;;;;5064326;28;20037;-65
2022/02/26 06:06:47;;;;;;;30.10;4.43;;;;;;;;;;5064662;28;20045;-66
2022/02/26 06:09:13;;;;;;;26.58;4.03;;;;;;;;;;5064241;28;20037;-65
2022/02/26 06:11:39;;;;;;;30.02;4.50;;;;;;;;;;5063985;28;20087;-65
2022/02/26 06:14:05;;;;;;;29.75;4.25;;;;;;;;;;5063810;28;20095;-65
2022/02/26 06:16:31;;;;;;;37.10;4.68;;;;;;;;;;5079842;28;20113;-65
2022/02/26 06:18:58;;;;;;;24.08;4.10;;;;;;;;;;5070143;28;20141;-65
2022/02/26 06:21:24;;;;;;;29.67;4.53;;;;;;;;;;5083250;28;20047;-65
2022/02/26 06:23:50;;;;;;;27.90;4.63;;;;;;;;;;5083909;28;20044;-65
2022/02/26 06:26:16;;;;;;;19.45;4.85;;;;;;;;;;5081787;28;20052;-65
2022/02/26 06:28:42;;;;;;;28.85;4.55;;;;;;;;;;5085542;28;20572;-65
2022/02/26 06:31:08;;;;;;;21.52;4.10;;;;;;;;;;5086833;28;20049;-65
2022/02/26 06:33:34;;;;;;;27.95;5.40;;;;;;;;;;5087911;28;20038;-65
2022/02/26 06:36:01;;;;;;;30.13;4.70;;;;;;;;;;5083069;28;20040;-65
2022/02/26 06:38:27;;;;;;;21.55;5.28;;;;;;;;;;5086728;28;20078;-66
2022/02/26 06:40:53;;;;;;;36.50;4.63;;;;;;;;;;5088149;28;20146;-66
2022/02/26 06:43:20;;;;;;;27.30;7.45;;;;;;;;;;5103384;28;20128;-65
2022/02/26 06:45:46;;;;;;;20.58;5.03;;;;;;;;;;5077067;28;20076;-65
2022/02/26 06:48:12;;;;;;;30.77;5.05;;;;;;;;;;5067836;28;20040;-66
2022/02/26 06:50:38;;;;;;;30.98;4.97;;;;;;;;;;5067904;28;20052;-65
2022/02/26 06:53:04;;;;;;;35.30;5.60;;;;;;;;;;5082520;28;20052;-64
2022/02/26 06:55:31;;;;;;;39.72;7.40;;;;;;;;;;5068258;28;20053;-65
2022/02/26 06:57:57;;;;;;;33.80;6.25;;;;;;;;;;5093833;28;20100;-65
2022/02/26 07:00:23;;;;;;;28.00;5.45;;;;;;;;;;5085807;28;20139;-65
2022/02/26 07:02:49;;;;;;;24.00;4.75;;;;;;;;;;5085906;28;20056;-65
2022/02/26 07:05:16;;;;;;;23.73;4.57;;;;;;;;;;5082962;28;20055;-65
2022/02/26 07:07:42;;;;;;;36.63;6.25;;;;;;;;;;5068657;28;20041;-64
2022/02/26 07:10:09;;;;;;;30.30;4.97;;;;;;;;;;5087654;28;20045;-65
2022/02/26 07:12:35;;;;;;;30.65;6.28;;;;;;;;;;5085844;28;20066;-65
2022/02/26 07:15:01;;;;;;;27.20;5.03;;;;;;;;;;5084866;28;20129;-66
2022/02/26 07:17:27;;;;;;;34.45;5.60;;;;;;;;;;5067259;28;20051;-66
2022/02/26 07:19:53;;;;;;;35.65;6.50;;;;;;;;;;5082684;28;20535;-65
2022/02/26 07:22:19;;;;;;;29.17;4.85;;;;;;;;;;5066657;28;20314;-66
2022/02/26 07:24:46;;;;;;;31.92;5.38;;;;;;;;;;5067437;28;20077;-66
2022/02/26 07:27:13;;;;;;;26.10;5.43;;;;;;;;;;5082862;28;20049;-66
2022/02/26 07:29:40;;;;;;;22.23;4.95;;;;;;;;;;5066863;28;20052;-66
2022/02/26 07:32:06;;;;;;;35.33;4.95;;;;;;;;;;5066964;28;20405;-66
2022/02/26 07:34:32;;;;;;;28.27;5.25;;;;;;;;;;5066984;28;20045;-66
2022/02/26 07:36:59;;;;;;;24.65;5.22;;;;;;;;;;5101690;28;20099;-66
2022/02/26 07:39:25;;;;;;;22.40;5.15;;;;;;;;;;5085323;28;20087;-66
2022/02/26 07:41:51;;;;;;;26.85;4.00;;;;;;;;;;5086613;28;20119;-66
2022/02/26 07:44:18;;;;;;;25.02;4.88;;;;;;;;;;5086632;28;20496;-66
2022/02/26 07:46:44;;;;;;;28.77;4.82;;;;;;;;;;5068873;28;20045;-66
2022/02/26 07:49:10;;;;;;;17.75;4.38;;;;;;;;;;5073002;28;20036;-67
2022/02/26 07:51:37;;;;;;;23.95;5.03;;;;;;;;;;5086215;28;20051;-67
2022/02/26 07:54:03;;;;;;;19.17;4.25;;;;;;;;;;5066101;28;20064;-66
2022/02/26 07:56:29;;;;;;;26.48;4.57;;;;;;;;;;5085548;28;20045;-66
2022/02/26 07:58:55;;;;;;;22.35;4.05;;;;;;;;;;5101425;28;20125;-66
2022/02/26 08:01:22;;;;;;;17.15;4.15;;;;;;;;;;5086124;28;20052;-66
2022/02/26 08:03:49;;;;;;;27.60;5.43;;;;;;;;;;5083322;28;20633;-66
2022/02/26 08:06:15;;;;;;;29.83;4.03;;;;;;;;;;5080117;28;20052;-66
2022/02/26 08:08:41;;;;;;;16.10;3.72;;;;;;;;;;5077231;28;20055;-66
2022/02/26 08:11:07;;;;;;;20.10;4.32;;;;;;;;;;5084551;28;20048;-66
2022/02/26 08:13:34;;;;;;;25.65;4.97;;;;;;;;;;5078772;28;20079;-66
2022/02/26 08:16:00;;;;;;;22.65;3.63;;;;;;;;;;5069378;28;20037;-66
2022/02/26 08:18:26;;;;;;;26.27;4.07;;;;;;;;;;5068040;28;20041;-66
2022/02/26 08:20:52;;;;;;;25.05;5.45;;;;;;;;;;5068454;28;20069;-66
2022/02/26 08:23:18;;;;;;;24.77;4.22;;;;;;;;;;5087844;28;20071;-66
2022/02/26 08:25:44;;;;;;;27.38;4.60;;;;;;;;;;5085526;28;20044;-66
2022/02/26 08:28:10;;;;;;;19.23;4.45;;;;;;;;;;5077026;28;20044;-66
2022/02/26 08:30:36;;;;;;;26.08;5.18;;;;;;;;;;5079789;28;20041;-66
2022/02/26 08:33:03;;;;;;;25.52;3.90;;;;;;;;;;5085642;28;20051;-65
2022/02/26 08:35:29;;;;;;;20.08;3.72;;;;;;;;;;5084710;28;20041;-65
2022/02/26 08:37:55;;;;;;;23.63;5.35;;;;;;;;;;5085180;28;20105;-65
2022/02/26 08:40:21;;;;;;;23.33;4.88;;;;;;;;;;5081355;28;20068;-65
2022/02/26 08:42:47;;;;;;;26.20;5.05;;;;;;;;;;5065383;28;20040;-65
2022/02/26 08:45:14;;;;;;;31.13;4.45;;;;;;;;;;5066646;28;20037;-65
2022/02/26 08:47:40;;;;;;;24.88;4.13;;;;;;;;;;5078789;28;20112;-65
2022/02/26 08:50:08;;;;;;;20.38;3.67;;;;;;;;;;5090601;28;20044;-65
2022/02/26 08:52:34;;;;;;;19.40;3.80;;;;;;;;;;5088404;28;20049;-65
2022/02/26 08:55:01;;;;;;;22.55;4.65;;;;;;;;;;5084077;28;20079;-65
2022/02/26 08:57:27;;;;;;;20.90;4.30;;;;;;;;;;5077539;28;20048;-65
2022/02/26 08:59:53;;;;;;;24.98;4.95;;;;;;;;;;5067719;28;20403;-65
2022/02/26 09:02:19;;;;;;;31.40;4.40;;;;;;;;;;5078398;28;20048;-65
2022/02/26 09:04:45;;;;;;;29.05;4.03;;;;;;;;;;5073771;28;20117;-65
2022/02/26 09:07:11;;;;;;;19.42;3.75;;;;;;;;;;5088849;28;20071;-65
2022/02/26 09:09:38;;;;;;;22.15;4.32;;;;;;;;;;5082395;28;20044;-64
2022/02/26 09:12:04;;;;;;;23.65;4.82;;;;;;;;;;5072366;28;20048;-65
2022/02/26 09:14:30;;;;;;;18.98;3.30;;;;;;;;;;5069529;28;20045;-65
2022/02/26 09:16:56;;;;;;;26.00;5.65;;;;;;;;;;5078288;28;20045;-65
2022/02/26 09:19:22;;;;;;;16.67;3.72;;;;;;;;;;5084556;28;20096;-65
2022/02/26 09:21:49;;;;;;;24.17;4.20;;;;;;;;;;5084404;28;20063;-65
2022/02/26 09:24:15;;;;;;;20.20;4.75;;;;;;;;;;5064359;28;20213;-65
2022/02/26 09:26:41;;;;;;;22.88;4.53;;;;;;;;;;5065123;28;20045;-65
2022/02/26 09:29:08;;;;;;;21.42;5.03;;;;;;;;;;5076651;28;20052;-65
2022/02/26 09:31:34;;;;;;;20.45;4.10;;;;;;;;;;5073104;28;20128;-65
2022/02/26 09:34:00;;;;;;;22.70;5.03;;;;;;;;;;5078609;28;20165;-65
2022/02/26 09:36:26;;;;;;;22.75;5.32;;;;;;;;;;5074539;28;20078;-65
2022/02/26 09:38:52;;;;;;;16.63;4.15;;;;;;;;;;5073498;28;20102;-63
2022/02/26 09:41:18;;;;;;;29.60;4.18;;;;;;;;;;5078382;28;20048;-63
2022/02/26 09:43:44;;;;;;;23.83;4.80;;;;;;;;;;5072232;28;20039;-65
2022/02/26 09:46:12;;;;;;;24.35;4.07;;;;;;;;;;5078317;28;20068;-64
2022/02/26 09:48:38;;;;;;;22.40;4.35;;;;;;;;;;5073908;28;20044;-64
2022/02/26 09:51:04;;;;;;;22.13;3.97;;;;;;;;;;5082893;28;20036;-64
2022/02/26 09:53:30;;;;;;;27.83;4.05;;;;;;;;;;5072770;28;20070;-64
2022/02/26 09:55:57;;;;;;;31.95;4.80;;;;;;;;;;5081240;28;20072;-64
2022/02/26 09:58:24;;;;;;;31.75;3.80;;;;;;;;;;5083483;28;20112;-64
2022/02/26 10:00:51;;;;;;;25.15;3.80;;;;;;;;;;5085501;28;20132;-64
2022/02/26 10:03:28;;;;;;;20.77;4.50;;;;;;;;;;5068517;28;20037;-64
2022/02/26 10:06:14;;;;;;;17.85;3.47;;;;;;;;;;5077383;28;20501;-64
2022/02/26 10:08:45;;;;;;;18.17;3.80;;;;;;;;;;5080183;28;20072;-64
2022/02/26 10:11:23;;;;;;;25.67;3.67;;;;;;;;;;5077653;28;20041;-64
2022/02/26 10:13:49;;;;;;;18.92;3.60;;;;;;;;;;5074403;28;20108;-64
2022/02/26 10:16:15;;;;;;;11.80;2.80;;;;;;;;;;5070760;28;20128;-64
2022/02/26 10:18:51;;;;;;;25.98;3.88;;;;;;;;;;5078385;28;20040;-64
2022/02/26 10:21:31;;;;;;;25.02;2.42;;;;;;;;;;5073713;28;20039;-64
2022/02/26 10:23:57;;;;;;;19.10;2.58;;;;;;;;;;5070067;28;20048;-65
2022/02/26 10:26:27;;;;;;;24.58;3.67;;;;;;;;;;5081455;28;20037;-65
2022/02/26 10:29:06;;;;;;;19.35;3.13;;;;;;;;;;5062614;28;20044;-65
2022/02/26 10:31:45;;;;;;;29.58;3.40;;;;;;;;;;5084208;28;20100;-65
2022/02/26 10:34:24;;;;;;;18.15;2.80;;;;;;;;;;5093921;28;20048;-65
2022/02/26 10:37:05;;;;;;;13.23;2.80;;;;;;;;;;5088046;28;20036;-64
2022/02/26 10:39:39;;;;;;;17.73;4.05;;;;;;;;;;5076678;28;20048;-64
2022/02/26 10:42:06;;;;;;;20.65;3.25;;;;;;;;;;5078413;28;20064;-65
2022/02/26 10:44:33;;;;;;;19.83;3.63;;;;;;;;;;5079806;28;20098;-64
2022/02/26 10:47:10;;;;;;;19.55;3.00;;;;;;;;;;5086035;28;20052;-64
2022/02/26 10:49:46;;;;;;;20.60;4.30;;;;;;;;;;5082982;28;20518;-64
2022/02/26 10:52:16;;;;;;;15.63;2.75;;;;;;;;;;5077688;28;20044;-64
2022/02/26 10:54:43;;;;;;;15.10;2.78;;;;;;;;;;5078039;28;20072;-64
2022/02/26 10:57:11;;;;;;;24.38;3.35;;;;;;;;;;5080668;28;20049;-64
2022/02/26 10:59:41;;;;;;;25.45;4.32;;;;;;;;;;5075630;28;20170;-64
2022/02/26 11:02:10;;;;;;;15.50;3.45;;;;;;;;;;5075130;28;20056;-73
2022/02/26 11:04:37;;;;;;;17.85;3.00;;;;;;;;;;5082084;28;20199;-74
2022/02/26 11:07:04;;;;;;;21.63;4.00;;;;;;;;;;5095747;28;20076;-74
2022/02/26 11:09:30;;;;;;;20.30;3.13;;;;;;;;;;5069710;28;20131;-69
2022/02/26 11:11:57;;;;;;;19.48;3.70;;;;;;;;;;5073059;28;20066;-74
2022/02/26 11:14:25;;;;;;;19.08;4.10;;;;;;;;;;5075253;28;20278;-69
2022/02/26 11:16:53;;;;;;;19.40;3.97;;;;;;;;;;5080250;28;20569;-68
2022/02/26 11:19:20;;;;;;;;;;;;;;;;;;5087953;28;20044;-64
2022/02/26 11:21:49;;;;;;;21.30;3.63;;;;;;;;;;5081703;28;19920;-64
2022/02/26 11:24:18;;;;;;;18.05;2.83;;;;;;;;;;5083770;28;20056;-65
2022/02/26 11:26:46;;;;;;;20.10;4.43;;;;;;;;;;5084028;28;20037;-66
2022/02/26 11:29:12;;;;;;;14.85;2.38;;;;;;;;;;5084756;28;20040;-68
2022/02/26 11:31:45;;;;;;;16.15;2.63;;;;;;;;;;5094955;28;20132;-71
2022/02/26 11:34:11;;;;;;;20.20;2.65;;;;;;;;;;5091332;28;20308;-77
2022/02/26 11:36:47;;;;;;;17.42;3.58;;;;;;;;;;5096712;28;20052;-78
2022/02/26 11:39:27;;;;;;;14.73;2.40;;;;;;;;;;5071529;28;20098;-79
2022/02/26 11:42:12;;;;;;;23.33;3.72;;;;;;;;;;5083015;28;20052;-64
2022/02/26 11:44:39;;;;;;;21.38;4.00;;;;;;;;;;5072298;28;20072;-71
2022/02/26 11:47:16;;;;;;;12.05;2.63;;;;;;;;;;5079538;28;20100;-74
2022/02/26 11:50:04;;;;;;;17.65;3.20;;;;;;;;;;5084592;28;20050;-76
2022/02/26 11:52:49;;;;;;;13.63;2.60;;;;;;;;;;5071149;28;20056;-79
2022/02/26 11:55:23;;;;;;;15.65;5.35;;;;;;;;;;5095514;28;20191;-70
2022/02/26 11:57:50;;;;;;;22.85;3.58;;;;;;;;;;5085291;28;20463;-67
2022/02/26 12:00:18;;;;;;;18.77;4.72;;;;;;;;;;5080460;28;20060;-66
2022/02/26 12:02:44;;;;;;;;;;;;;;;;;;5082165;28;20048;-68
2022/02/26 12:05:10;;;;;;;16.30;2.67;;;;;;;;;;5118315;28;19927;-66
2022/02/26 12:07:41;;;;;;;12.07;2.75;;;;;;;;;;5083341;28;20109;-67
2022/02/26 12:10:09;;;;;;;14.52;2.10;;;;;;;;;;5081616;28;20048;-69
2022/02/26 12:12:35;;;;;;;;;;;;;;;;;;5083559;28;20091;-69
2022/02/26 12:15:01;;;;;;;17.42;2.85;;;;;;;;;;5089197;28;19926;-70
2022/02/26 12:17:27;;;;;;;11.07;2.03;;;;;;;;;;5088797;28;20058;-65
2022/02/26 12:19:54;;;;;;;14.05;3.08;;;;;;;;;;5079499;28;20279;-65
2022/02/26 12:22:22;;;;;;;17.23;3.35;;;;;;;;;;5085950;28;20167;-61
2022/02/26 12:24:55;;;;;;;15.80;2.88;;;;;;;;;;5077786;28;20051;-63
2022/02/26 12:27:31;;;;;;;15.65;3.60;;;;;;;;;;5084261;28;20040;-62
2022/02/26 12:29:57;;;;;;;13.32;2.97;;;;;;;;;;5098622;28;20106;-62
2022/02/26 12:32:27;;;;;;;15.27;3.25;;;;;;;;;;5084747;28;20033;-62
2022/02/26 12:34:53;;;;;;;13.90;3.30;;;;;;;;;;5075783;28;20051;-67
2022/02/26 12:37:25;;;;;;;16.05;2.92;;;;;;;;;;5079760;28;20041;-65
2022/02/26 12:39:53;;;;;;;19.63;2.95;;;;;;;;;;5101441;28;20040;-68
2022/02/26 12:42:20;;;;;;;16.80;3.25;;;;;;;;;;5070418;28;20106;-67
2022/02/26 12:44:47;;;;;;;15.15;2.83;;;;;;;;;;5091829;28;20048;-68
2022/02/26 12:47:14;;;;;;;16.58;2.90;;;;;;;;;;5075633;28;20271;-67
2022/02/26 12:49:40;;;;;;;19.35;3.70;;;;;;;;;;5067969;28;20045;-68
2022/02/26 12:52:07;;;;;;;19.08;2.92;;;;;;;;;;5069586;28;20045;-68
2022/02/26 12:54:36;;;;;;;13.75;2.60;;;;;;;;;;5069682;28;20040;-69
2022/02/26 12:57:03;;;;;;;19.70;3.33;;;;;;;;;;5065932;28;20148;-69
2022/02/26 12:59:31;;;;;;;10.30;2.63;;;;;;;;;;5064757;28;20090;-69
2022/02/26 13:01:57;;;;;;;;;;;;;;;;;;5066269;28;20048;-69
2022/02/26 13:04:30;;;;;;;12.63;3.08;;;;;;;;;;5068639;28;19924;-71
2022/02/26 13:07:05;;;;;;;14.75;3.53;;;;;;;;;;5086384;28;20060;-72
2022/02/26 13:09:31;;;;;;;13.10;2.30;;;;;;;;;;5073719;28;20057;-71
2022/02/26 13:11:57;;;;;;;14.00;2.67;;;;;;;;;;5084538;28;20049;-69
2022/02/26 13:14:24;;;;;;;9.48;2.70;;;;;;;;;;5075861;28;20049;-71
2022/02/26 13:16:57;;;;;;;14.10;2.00;;;;;;;;;;5076442;28;20051;-68
2022/02/26 13:19:24;;;;;;;14.32;2.72;;;;;;;;;;5076557;28;20323;-68
2022/02/26 13:21:50;;;;;;;14.55;2.65;;;;;;;;;;5073744;28;20044;-70
2022/02/26 13:24:17;;;;;;;16.20;2.30;;;;;;;;;;5092211;28;20114;-70
2022/02/26 13:26:43;;;;;;;15.43;2.65;;;;;;;;;;5078076;28;20056;-72
2022/02/26 13:29:10;;;;;;;17.50;2.75;;;;;;;;;;5090873;28;20032;-70
2022/02/26 13:31:37;;;;;;;16.55;2.67;;;;;;;;;;5077746;28;20400;-66
2022/02/26 13:34:20;;;;;;;11.60;2.90;;;;;;;;;;5078398;28;20095;-68
2022/02/26 13:36:47;;;;;;;14.25;2.83;;;;;;;;;;5076811;28;20065;-68
2022/02/26 13:39:13;;;;;;;;;;;;;;;;;;5078809;28;20100;-69
2022/02/26 13:41:39;;;;;;;13.85;3.05;;;;;;;;;;5081452;28;19982;-71
2022/02/26 13:44:07;;;;;;;16.65;3.22;;;;;;;;;;5087259;28;20130;-69
2022/02/26 13:46:36;;;;;;;12.18;2.72;;;;;;;;;;5087082;28;20095;-76
2022/02/26 13:49:02;;;;;;;13.10;2.85;;;;;;;;;;5079646;28;20044;-73
2022/02/26 13:51:33;;;;;;;14.52;3.78;;;;;;;;;;5087161;28;20059;-73
2022/02/26 13:53:59;;;;;;;12.43;2.10;;;;;;;;;;5069925;28;20052;-70
2022/02/26 13:56:29;;;;;;;13.05;3.25;;;;;;;;;;5072615;28;20052;-74
2022/02/26 13:58:56;;;;;;;10.02;2.90;;;;;;;;;;5090335;28;20063;-71
2022/02/26 14:01:22;;;;;;;20.87;3.63;;;;;;;;;;5074677;28;20075;-69
2022/02/26 14:03:52;;;;;;;11.30;2.65;;;;;;;;;;5080355;28;20082;-69
2022/02/26 14:06:29;;;;;;;9.63;2.17;;;;;;;;;;5075254;28;20045;-72
2022/02/26 14:08:55;;;;;;;8.70;2.03;;;;;;;;;;5069484;28;20037;-65
2022/02/26 14:11:23;;;;;;;11.32;2.45;;;;;;;;;;5080270;28;20086;-64
2022/02/26 14:13:49;;;;;;;19.25;3.47;;;;;;;;;;5078881;28;20071;-65
2022/02/26 14:16:15;;;;;;;13.40;3.63;;;;;;;;;;5094986;28;20036;-65
2022/02/26 14:18:41;;;;;;;15.40;3.25;;;;;;;;;;5072967;28;20052;-66
2022/02/26 14:21:09;;;;;;;13.05;3.13;;;;;;;;;;5080650;28;20607;-65
2022/02/26 14:23:35;;;;;;;;;;;;;;;;;;5085914;28;20518;-65
2022/02/26 14:26:01;;;;;;;14.02;2.72;;;;;;;;;;5099026;28;20407;-65
2022/02/26 14:28:27;;;;;;;14.63;2.78;;;;;;;;;;5102395;28;20068;-65
2022/02/26 14:30:55;;;;;;;12.90;3.00;;;;;;;;;;5095378;28;20044;-65
2022/02/26 14:33:21;;;;;;;9.30;2.00;;;;;;;;;;5103272;28;20047;-64
2022/02/26 14:35:47;;;;;;;13.00;2.80;;;;;;;;;;5073223;28;20051;-65